Weedhaven, Texas
Current Conditions -  °F | °C
As of 10:15 PM on Wednesday 28 Jan 2015 (Local Time) from KPKV Reporting Station
Haze Haze  
Wind Chill: 57°   Ceiling: 700
Heat Index: 57°   Visibility: 1mi
Dew Point: 57°   Wind: 3mph
Humidity: 100%   Direction: 170°S
Pressure: 30.16"   Gusts: NA
Location:  28.5342°N, 96.663°W
Report Text: KPKV 290415Z AUTO 17003KT 1SM BR VV007 14/14 A3016 RMK AO2 T01400140
Loading
Personal Weather Stations






























Interactive Weather Map New forecast layout! Learn more

10-Day Weather Forecast

Advertisements
Track Severe Weather on mobile